Address 0x877effef266a7bc30bc585703539222a5248e828

 
 
Txn Hash Method
Block
From
To
Value [Txn Fee]
0x0a5e43a4a8151bef79508a2df82890db43344e9c6852ba9c5463e2e67882d21fTransfer109886382021-09-17 8:50:159 days 19 hrs ago0x877effef266a7bc30bc585703539222a5248e828OUT0xb1cf5f9fea8295e37cad4173aa1d402dc98e224d0.006089768158863 BNB0.0001071
0xceedf244d792bddb320ee6df0c5b6e4109e3a0577c4abbb3693b59e5c87ae45d0x2014617c109767622021-09-16 22:55:5310 days 5 hrs ago0x877effef266a7bc30bc585703539222a5248e828OUT 0x5de32a25b4da582967043a381a757480c4cbc6360 BNB0.0066169695
0xa355b0a9222d0fa979850043b266fb2c5f6bb2fbfa73622315ee96f62c954cd1Approve109767472021-09-16 22:55:0810 days 5 hrs ago0x877effef266a7bc30bc585703539222a5248e828OUT 0x5e148994e1f5b9adc4df8615564264069eed6a9d0 BNB0.0001290759
0x0fde6b16968fa7bb2ddc4987c011ef088393dcb21ea071a85d8269fc96ff4eedApprove109767412021-09-16 22:54:5010 days 5 hrs ago0x877effef266a7bc30bc585703539222a5248e828OUT 0x5e148994e1f5b9adc4df8615564264069eed6a9d0 BNB0.0002269959
0xfd5e2ff70704ffea9b195115605dc3fdcf274155824112df9ae8676d124271b60xc4e5cb75109767272021-09-16 22:54:0810 days 5 hrs ago0x877effef266a7bc30bc585703539222a5248e828OUT 0x5de32a25b4da582967043a381a757480c4cbc6360 BNB0.0004660074
0x64b32112e51b08e60a1df8ea73185d3f5bb8d06da2c5532f1242a76ffc32bfdeTransfer104457512021-08-29 8:29:4228 days 20 hrs ago0x877effef266a7bc30bc585703539222a5248e828OUT Binance: BUSD Stablecoin0 BNB0.0001841253
0x10c49025723bde11d2f5018b716ad3e752f32e499cae0becad7b31ca9e476aa2Transfer103012802021-08-24 6:36:2733 days 22 hrs ago0x877effef266a7bc30bc585703539222a5248e828OUT Binance: BUSD Stablecoin0 BNB0.0001076253
0x3716ea1aec2777f26474d30756eb29ebb796620531ff7a749c96cbd82ac80648Buy New Level103010692021-08-24 6:25:5433 days 22 hrs ago0x877effef266a7bc30bc585703539222a5248e828OUT 0x5acc84a3e955bdd76467d3348077d003f00ffb970 BNB0.000945235
0x7c58f53e2ddb2b60384a59b3c64c5143a957a3498ff592d3327550c9c60deb3bTransfer103010232021-08-24 6:23:3633 days 22 hrs ago0xae8440c05d83dfc7b347816d90693e7c2d51aa30 IN 0x877effef266a7bc30bc585703539222a5248e8280.01 BNB0.0001071
0x323dcd8145368984af88a49290d7eb21c9e65455a0a1f54e212853c65ee879f1Transfer102860622021-08-23 17:54:2134 days 10 hrs ago0x877effef266a7bc30bc585703539222a5248e828OUT Binance: BUSD Stablecoin0 BNB0.0001076253
0x03382e4277c64db7deb115c09e3c248420b4dcbc733285f985abcf1fcb8862f3Transfer102787702021-08-23 11:40:4534 days 17 hrs ago0x877effef266a7bc30bc585703539222a5248e828OUT Binance: BUSD Stablecoin0 BNB0.0001841865
0x388fe5361cf281912eec54c32e1f44f246ddbf014d058c36eb55d86dce75841fTransfer102501802021-08-22 11:49:3935 days 17 hrs ago0x877effef266a7bc30bc585703539222a5248e828OUT Binance: BUSD Stablecoin0 BNB0.0001075641
0xfffecbe54cd66f292bf81bb4c1e9c2ac6c17caa137e496bbbdda86c9118a0142Transfer102405012021-08-22 3:43:4136 days 1 hr ago0x877effef266a7bc30bc585703539222a5248e828OUT Binance: BUSD Stablecoin0 BNB0.0001076253
0x36b97f5e1abf98c5593e7f188b84622e3e102d677813e98d5cff156dccf32276Transfer98052102021-08-06 19:39:3551 days 9 hrs ago0x877effef266a7bc30bc585703539222a5248e828OUT Binance: BUSD Stablecoin0 BNB0.0001076253
0x263710bbfe752cdf43bef782f0bea7ffa2c5cfab3bf1a858f9946453dbf1e49dBuy New Level98051472021-08-06 19:36:2051 days 9 hrs ago0x877effef266a7bc30bc585703539222a5248e828OUT 0x5acc84a3e955bdd76467d3348077d003f00ffb970 BNB0.00106728
0x5d40feef9c476cb71a3a7b621ea53bd9bdfda3ff67fe001f37d72f5c202f5f70Transfer97644972021-08-05 8:37:3452 days 20 hrs ago0x877effef266a7bc30bc585703539222a5248e828OUT0x3c7e1c6db8110794f2fe65e8ac29fbfa08a98b3f0.013 BNB0.0001071
0xac88b7cc381e13fdb6c8691464740fc16c7c86fac6965f9e7d1230a203505ce5Transfer97644772021-08-05 8:36:3452 days 20 hrs ago0x877effef266a7bc30bc585703539222a5248e828OUT Binance: BUSD Stablecoin0 BNB0.0001841865
0x1dbe023edfea8e18b4de62966048ef045ee784ce18dffdde2fe1d1b0e70dea34Transfer97631132021-08-05 7:27:1952 days 21 hrs ago0x877effef266a7bc30bc585703539222a5248e828OUT Binance: BUSD Stablecoin0 BNB0.0001841865
0x0e04aaf63ff624a2b2576c081f31b8eba6256b57b04c2a1a55cfb4fa93b750d6Transfer97630882021-08-05 7:26:0452 days 21 hrs ago0x877effef266a7bc30bc585703539222a5248e828OUT0x1794063b1557a9dffd8ae6ad33abd4bde5065f4a0.013 BNB0.0001071
0x4d8db0520779c19bca171b2fade4d85099a6e9c2977bc732b0673de29c64e3e8Transfer97629602021-08-05 7:18:5752 days 21 hrs ago0x877effef266a7bc30bc585703539222a5248e828OUT Binance: BUSD Stablecoin0 BNB0.0001841865
0x2023b6f04b0fc5a94e4a4fe9af0dda2644eb05f2f1f6d21c20e6dae4a52e418dTransfer97624462021-08-05 6:52:2652 days 21 hrs ago0x877effef266a7bc30bc585703539222a5248e828OUT Binance: BUSD Stablecoin0 BNB0.0001841865
0xab6db061967930274e65fcb56e9e03fbcf291eb494478e8259a7c4dc96366c40Buy New Level97616222021-08-05 6:09:1852 days 22 hrs ago0x877effef266a7bc30bc585703539222a5248e828OUT 0x5acc84a3e955bdd76467d3348077d003f00ffb970 BNB0.00080653
0xf52e58eceae9769d008d10f61f69836d1dde3935e64ffa6f3fecb2f69e753d6fTransfer97614282021-08-05 5:58:1252 days 22 hrs ago0x877effef266a7bc30bc585703539222a5248e828OUT Binance: BUSD Stablecoin0 BNB0.0001841253
0x5c5862f3e364eb149cea12aeeff15d37ad54147e264ece37caeb500b09d24087Swap Exact Token...97614052021-08-05 5:56:4452 days 22 hrs ago0x877effef266a7bc30bc585703539222a5248e828OUT PancakeSwap: Router v20 BNB0.000702117
0xf7c2e9b5ea3c9a93bacec542bf7b43f2e5ae9a8a533f66883efe338a79a9beadApprove97613942021-08-05 5:56:1052 days 22 hrs ago0x877effef266a7bc30bc585703539222a5248e828OUT Binance: BUSD Stablecoin0 BNB0.0004485006
[ Download CSV Export 
Latest 1 internal transaction
Parent Txn Hash Block From To Value
0x5c5862f3e364eb149cea12aeeff15d37ad54147e264ece37caeb500b09d2408797614052021-08-05 5:56:4452 days 22 hrs ago PancakeSwap: Router v20x877effef266a7bc30bc585703539222a5248e8280.029910358158863432 BNB
[ Download CSV Export 
Loading

Contract Name:
0 BNB

Compiler Version
0

Optimization Enabled:
0 BNB

Other Settings:
-NA-
Block Transaction Gas Used Reward
Age Block Fee Address BC Fee Address Voting Power Jailed Incoming
Block Uncle Number Difficulty Gas Used Reward
Loading
Loading
Make sure to use the "Vote Down" button for any spammy posts, and the "Vote Up" for interesting conversations.